Time;durP1;ratioP1;P1;durP2;ratioP2;P2;SDS_P1;SDS_P2;PMS_P1;PMS_P2;Temp;Humidity;BMP_temperature;BMP_pressure;BME280_temperature;BME280_humidity;BME280_pressure;Samples;Min_cycle;Max_cycle;Signal;HPM_P1;HPM_P2
2022/09/09 00:00:33;;;;;;;;;;;;;;;14.97;100.00;100420.69;12868556;23;20309;-66
2022/09/09 00:06:00;;;;;;;;;;;;;;;14.80;100.00;100413.31;12867525;23;20303;-68
2022/09/09 00:11:05;;;;;;;;;;;;;;;14.84;100.00;100409.69;12867999;23;19939;-68
2022/09/09 00:16:16;;;;;;;;;;;;;;;14.89;100.00;100409.59;12884664;23;19952;-66
2022/09/09 00:21:19;;;;;;;;;;;;;;;14.78;100.00;100399.41;12868181;23;20043;-68
2022/09/09 00:26:25;;;;;;;;;;;;;;;14.78;100.00;100396.81;12868231;23;19920;-67
2022/09/09 00:31:30;;;;;;;;;;;;;;;14.77;100.00;100389.84;12867704;23;19995;-68
2022/09/09 00:36:35;;;;;;;;;;;;;;;14.72;100.00;100396.09;12867783;23;20332;-69
2022/09/09 00:41:49;;;;;;;;;;;;;;;14.80;100.00;100381.94;12866999;23;20000;-72
2022/09/09 00:46:57;;;;;;;;;;;;;;;14.77;100.00;100387.22;12883688;23;19919;-72
2022/09/09 00:52:06;;;;;;;;;;;;;;;14.69;100.00;100390.94;12883192;23;20272;-71
2022/09/09 00:57:24;;;;;;;;;;;;;;;14.57;100.00;100384.28;12882386;23;19955;-70
2022/09/09 01:02:29;;;;;;;;;;;;;;;14.70;100.00;100380.44;12881537;23;20319;-69
2022/09/09 01:07:32;;;;;;;;;;;;;;;14.69;100.00;100388.34;12881459;23;19920;-69
2022/09/09 01:12:38;;;;;;;;;;;;;;;14.60;100.00;100385.97;12866529;23;19991;-69
2022/09/09 01:17:51;;;;;;;;;;;;;;;14.61;100.00;100388.56;12881061;23;19958;-69
2022/09/09 01:23:00;;;;;;;;;;;;;;;14.69;100.00;100383.09;12881124;23;20038;-72
2022/09/09 01:28:09;;;;;;;;;;;;;;;14.62;100.00;100377.19;12880650;23;19940;-70
2022/09/09 01:33:14;;;;;;;;;;;;;;;14.54;100.00;100370.44;12879887;23;19939;-70
2022/09/09 01:38:18;;;;;;;;;;;;;;;14.58;100.00;100361.66;12879718;23;19955;-70
2022/09/09 01:43:23;;;;;;;;;;;;;;;14.70;100.00;100363.94;12866335;23;19995;-72
2022/09/09 01:48:26;;;;;;;;;;;;;;;14.71;100.00;100365.63;12865968;23;20046;-67
2022/09/09 01:53:29;;;;;;;;;;;;;;;14.59;100.00;100368.56;12866513;23;20378;-68
2022/09/09 01:58:39;;;;;;;;;;;;;;;14.60;100.00;100365.91;12865943;23;20370;-69
2022/09/09 02:03:45;;;;;;;;;;;;;;;14.56;100.00;100366.91;12879404;23;19998;-68
2022/09/09 02:08:49;;;;;;;;;;;;;;;14.63;100.00;100378.06;12879300;23;19950;-69
2022/09/09 02:13:57;;;;;;;;;;;;;;;14.66;100.00;100355.31;12865709;23;19947;-67
2022/09/09 02:19:02;;;;;;;;;;;;;;;14.63;100.00;100365.00;12878791;23;19955;-71
2022/09/09 02:24:07;;;;;;;;;;;;;;;14.53;100.00;100361.75;12866275;23;19947;-68
2022/09/09 02:29:13;;;;;;;;;;;;;;;14.65;100.00;100358.81;12875862;23;20223;-69
2022/09/09 02:34:18;;;;;;;;;;;;;;;14.58;100.00;100357.25;12866158;23;20015;-70
2022/09/09 02:39:21;;;;;;;;;;;;;;;14.70;100.00;100356.94;12870168;23;20046;-69
2022/09/09 02:44:26;;;;;;;;;;;;;;;14.66;100.00;100363.16;12870036;23;19943;-72
2022/09/09 02:49:33;;;;;;;;;;;;;;;14.71;100.00;100365.63;12869079;23;19951;-71
2022/09/09 02:54:38;;;;;;;;;;;;;;;14.66;100.00;100365.78;12882554;23;20410;-71
2022/09/09 02:59:44;;;;;;;;;;;;;;;14.59;100.00;100365.97;12870166;23;19927;-71
2022/09/09 03:04:50;;;;;;;;;;;;;;;14.62;100.00;100368.50;12869755;23;19939;-73
2022/09/09 03:09:53;;;;;;;;;;;;;;;14.59;100.00;100374.66;12881726;23;19999;-71
2022/09/09 03:14:58;;;;;;;;;;;;;;;14.59;100.00;100376.41;12869248;23;19962;-70
2022/09/09 03:20:01;;;;;;;;;;;;;;;14.55;100.00;100361.72;12869676;23;19940;-71
2022/09/09 03:25:04;;;;;;;;;;;;;;;14.53;100.00;100363.53;12868776;23;19987;-70
2022/09/09 03:30:09;;;;;;;;;;;;;;;14.56;100.00;100350.38;12868528;23;19932;-73
2022/09/09 03:35:12;;;;;;;;;;;;;;;14.65;100.00;100350.97;12862586;23;20002;-72
2022/09/09 03:40:15;;;;;;;;;;;;;;;14.55;100.00;100343.41;12861669;23;19998;-70
2022/09/09 03:45:19;;;;;;;;;;;;;;;14.62;100.00;100343.22;12861106;23;19994;-72
2022/09/09 03:50:23;;;;;;;;;;;;;;;14.64;100.00;100353.63;12861549;23;19985;-74
2022/09/09 03:55:26;;;;;;;;;;;;;;;14.59;100.00;100358.13;12861071;23;19963;-73
2022/09/09 04:00:30;;;;;;;;;;;;;;;14.66;100.00;100360.56;12861294;23;19924;-71
2022/09/09 04:05:34;;;;;;;;;;;;;;;14.60;100.00;100360.69;12861191;23;19944;-71
2022/09/09 04:10:37;;;;;;;;;;;;;;;14.68;100.00;100358.75;12861254;23;19996;-71
2022/09/09 04:15:42;;;;;;;;;;;;;;;14.64;100.00;100357.13;12861751;23;20003;-71
2022/09/09 04:20:46;;;;;;;;;;;;;;;14.64;100.00;100358.84;12863076;23;19962;-69
2022/09/09 04:25:50;;;;;;;;;;;;;;;14.68;100.00;100350.91;12861660;23;20311;-74
2022/09/09 04:30:55;;;;;;;;;;;;;;;14.73;100.00;100356.00;12860713;23;19958;-69
2022/09/09 04:35:58;;;;;;;;;;;;;;;14.81;100.00;100352.28;12860372;23;19975;-69
2022/09/09 04:41:01;;;;;;;;;;;;;;;14.88;100.00;100353.84;12859668;23;20011;-76
2022/09/09 04:46:06;;;;;;;;;;;;;;;14.79;100.00;100355.81;12859422;23;19961;-72
2022/09/09 04:51:10;;;;;;;;;;;;;;;14.80;100.00;100360.19;12859233;23;19987;-70
2022/09/09 04:56:15;;;;;;;;;;;;;;;14.77;100.00;100370.72;12859294;23;20011;-71
2022/09/09 05:01:21;;;;;;;;;;;;;;;14.87;100.00;100365.19;12859872;23;19935;-69
2022/09/09 05:06:24;;;;;;;;;;;;;;;14.88;100.00;100368.66;12874353;23;19987;-71
2022/09/09 05:11:28;;;;;;;;;;;;;;;14.94;100.00;100373.72;12858873;23;19924;-70
2022/09/09 05:16:33;;;;;;;;;;;;;;;14.86;100.00;100379.16;12858831;23;19997;-70
2022/09/09 05:21:36;;;;;;;;;;;;;;;14.89;100.00;100375.59;12859364;23;20407;-70
2022/09/09 05:26:39;;;;;;;;;;;;;;;14.87;100.00;100373.03;12858581;23;20267;-71
2022/09/09 05:31:44;;;;;;;;;;;;;;;14.93;100.00;100382.44;12858751;23;20363;-73
2022/09/09 05:36:47;;;;;;;;;;;;;;;14.90;100.00;100385.16;12858680;23;19931;-70
2022/09/09 05:41:51;;;;;;;;;;;;;;;14.88;100.00;100379.97;12858685;23;20328;-71
2022/09/09 05:46:55;;;;;;;;;;;;;;;14.86;100.00;100378.28;12860938;23;19924;-69
2022/09/09 05:51:59;;;;;;;;;;;;;;;14.86;100.00;100375.66;12860542;23;20302;-71
2022/09/09 05:57:01;;;;;;;;;;;;;;;14.84;100.00;100386.16;12857060;23;20069;-71
2022/09/09 06:02:06;;;;;;;;;;;;;;;14.93;100.00;100380.69;12858674;23;19931;-70
2022/09/09 06:07:09;;;;;;;;;;;;;;;15.02;100.00;100390.91;12859353;23;19959;-75
2022/09/09 06:12:12;;;;;;;;;;;;;;;15.02;100.00;100393.53;12860640;23;19991;-70
2022/09/09 06:17:16;;;;;;;;;;;;;;;15.06;100.00;100391.69;12862881;23;20189;-72
2022/09/09 06:22:19;;;;;;;;;;;;;;;15.08;100.00;100403.78;12862124;23;20053;-70
2022/09/09 06:27:22;;;;;;;;;;;;;;;15.06;100.00;100405.59;12880345;23;20320;-71
2022/09/09 06:32:26;;;;;;;;;;;;;;;15.10;100.00;100402.91;12862330;23;19947;-73
2022/09/09 06:37:30;;;;;;;;;;;;;;;15.14;100.00;100408.00;12881051;23;19924;-72
2022/09/09 06:42:33;;;;;;;;;;;;;;;15.20;100.00;100406.97;12881178;23;20081;-74
2022/09/09 06:47:37;;;;;;;;;;;;;;;15.07;100.00;100411.69;12881872;23;20007;-71
2022/09/09 06:52:42;;;;;;;;;;;;;;;15.05;100.00;100403.03;12861607;23;21468;-72
2022/09/09 06:57:44;;;;;;;;;;;;;;;15.14;100.00;100404.53;12861899;23;19935;-72
2022/09/09 07:02:50;;;;;;;;;;;;;;;15.29;100.00;100422.41;12862336;23;19920;-72
2022/09/09 07:07:53;;;;;;;;;;;;;;;15.09;100.00;100420.34;12882218;23;19950;-73
2022/09/09 07:12:56;;;;;;;;;;;;;;;15.19;100.00;100413.09;12884015;23;19923;-75
2022/09/09 07:18:03;;;;;;;;;;;;;;;15.28;100.00;100424.16;12864144;23;20066;-70
2022/09/09 07:23:06;;;;;;;;;;;;;;;15.18;100.00;100427.94;12883024;23;19924;-71
2022/09/09 07:28:08;;;;;;;;;;;;;;;15.24;100.00;100443.44;12861600;23;20295;-71
2022/09/09 07:33:13;;;;;;;;;;;;;;;15.36;100.00;100437.03;12861891;23;19947;-71
2022/09/09 07:38:16;;;;;;;;;;;;;;;15.39;100.00;100435.19;12861768;23;19959;-75
2022/09/09 07:43:19;;;;;;;;;;;;;;;15.33;100.00;100443.19;12861038;23;19943;-74
2022/09/09 07:48:23;;;;;;;;;;;;;;;15.46;100.00;100441.13;12860811;23;19954;-71
2022/09/09 07:53:26;;;;;;;;;;;;;;;15.49;100.00;100444.53;12860704;23;20299;-71
2022/09/09 07:58:29;;;;;;;;;;;;;;;15.39;100.00;100443.03;12861389;23;19939;-73
2022/09/09 08:03:40;;;;;;;;;;;;;;;15.50;100.00;100451.47;12880939;23;19954;-72
2022/09/09 08:08:43;;;;;;;;;;;;;;;15.46;100.00;100462.91;12860472;23;20003;-72
2022/09/09 08:13:47;;;;;;;;;;;;;;;15.50;100.00;100467.16;12860553;23;19931;-72
2022/09/09 08:18:57;;;;;;;;;;;;;;;15.41;100.00;100467.41;12881640;23;20333;-71
2022/09/09 08:24:01;;;;;;;;;;;;;;;15.57;100.00;100468.69;12860760;23;19943;-72
2022/09/09 08:29:05;;;;;;;;;;;;;;;15.53;100.00;100469.69;12860565;23;19931;-74
2022/09/09 08:34:10;;;;;;;;;;;;;;;15.57;100.00;100475.69;12859439;23;19958;-73
2022/09/09 08:39:14;;;;;;;;;;;;;;;15.57;100.00;100483.53;12880776;23;20059;-72
2022/09/09 08:44:22;;;;;;;;;;;;;;;15.54;100.00;100479.25;12861465;23;19995;-72
2022/09/09 08:49:39;;;;;;;;;;;;;;;15.56;100.00;100472.22;12863397;23;19938;-74
2022/09/09 08:54:42;;;;;;;;;;;;;;;15.61;100.00;100480.81;12880469;23;19947;-74
2022/09/09 08:59:55;;;;;;;;;;;;;;;15.60;100.00;100475.63;12866787;23;20343;-71
2022/09/09 09:05:06;;;;;;;;;;;;;;;15.61;100.00;100477.31;12860112;23;19962;-74
2022/09/09 09:10:16;;;;;;;;;;;;;;;15.63;100.00;100486.84;12884988;23;19962;-73
2022/09/09 09:15:40;;;;;;;;;;;;;;;15.64;100.00;100490.31;12868054;23;19950;-73
2022/09/09 09:20:48;;;;;;;;;;;;;;;15.59;100.00;100498.28;12888254;23;19993;-73
2022/09/09 09:25:53;;;;;;;;;;;;;;;15.45;100.00;100508.28;12866781;23;20342;-73
2022/09/09 09:30:59;;;;;;;;;;;;;;;15.49;100.00;100509.94;12868953;23;19939;-72
2022/09/09 09:36:08;;;;;;;;;;;;;;;15.59;100.00;100503.53;12886773;23;20382;-73
2022/09/09 09:41:11;;;;;;;;;;;;;;;15.64;100.00;100506.88;12886103;23;20219;-68
2022/09/09 09:46:25;;;;;;;;;;;;;;;15.47;100.00;100511.72;12886252;23;19920;-71
2022/09/09 09:51:31;;;;;;;;;;;;;;;15.54;100.00;100505.41;12886078;23;19927;-69
2022/09/09 09:56:34;;;;;;;;;;;;;;;15.60;100.00;100515.69;12883767;23;19930;-69
2022/09/09 10:01:38;;;;;;;;;;;;;;;15.66;100.00;100512.94;12864629;23;19943;-71
2022/09/09 10:06:42;;;;;;;;;;;;;;;15.76;100.00;100505.66;12865140;23;19931;-69
2022/09/09 10:11:52;;;;;;;;;;;;;;;15.81;100.00;100504.63;12885728;23;19920;-70
2022/09/09 10:17:01;;;;;;;;;;;;;;;15.91;100.00;100510.47;12885484;23;20287;-71
2022/09/09 10:22:16;;;;;;;;;;;;;;;15.80;100.00;100523.88;12885827;23;19971;-73
2022/09/09 10:27:21;;;;;;;;;;;;;;;15.88;100.00;100529.72;12882852;23;19958;-69
2022/09/09 10:32:37;;;;;;;;;;;;;;;15.97;100.00;100531.22;12885243;23;19942;-71
2022/09/09 10:37:50;;;;;;;;;;;;;;;16.03;100.00;100534.50;12864974;23;19947;-69
2022/09/09 10:42:58;;;;;;;;;;;;;;;15.96;100.00;100543.44;12884299;23;19943;-71
2022/09/09 10:48:09;;;;;;;;;;;;;;;15.94;100.00;100558.34;12865221;23;19920;-71
2022/09/09 10:53:19;;;;;;;;;;;;;;;15.93;100.00;100569.72;12864709;23;20237;-69
2022/09/09 10:58:25;;;;;;;;;;;;;;;15.86;100.00;100565.56;12867037;23;20315;-72
2022/09/09 11:03:30;;;;;;;;;;;;;;;15.85;100.00;100573.44;12887974;23;20299;-71
2022/09/09 11:08:36;;;;;;;;;;;;;;;15.83;100.00;100572.63;12887386;23;20015;-72
2022/09/09 11:13:43;;;;;;;;;;;;;;;15.94;100.00;100576.69;12869091;23;19951;-71
2022/09/09 11:18:47;;;;;;;;;;;;;;;16.03;100.00;100580.81;12887168;23;19923;-71
2022/09/09 11:23:54;;;;;;;;;;;;;;;15.99;100.00;100573.91;12887557;23;19962;-70
2022/09/09 11:29:04;;;;;;;;;;;;;;;16.03;100.00;100576.41;12879441;23;20319;-72
2022/09/09 11:34:19;;;;;;;;;;;;;;;16.09;100.00;100576.22;12887689;23;20340;-68
2022/09/09 11:39:40;;;;;;;;;;;;;;;16.16;100.00;100584.75;12886192;23;20275;-68
2022/09/09 11:44:45;;;;;;;;;;;;;;;16.10;100.00;100579.72;12849188;23;19970;-71
2022/09/09 11:49:48;;;;;;;;;;;;;;;16.11;100.00;100578.81;12868518;23;20000;-69
2022/09/09 11:54:56;;;;;;;;;;;;;;;16.16;100.00;100583.00;12885479;23;19920;-69
2022/09/09 12:00:00;;;;;;;;;;;;;;;16.23;100.00;100577.56;12867439;23;19955;-70
2022/09/09 12:05:08;;;;;;;;;;;;;;;16.25;100.00;100581.00;12867415;23;19919;-67
2022/09/09 12:10:22;;;;;;;;;;;;;;;16.28;100.00;100591.41;12866724;23;20367;-68
2022/09/09 12:15:28;;;;;;;;;;;;;;;16.27;100.00;100582.69;12885921;23;19951;-69
2022/09/09 12:20:34;;;;;;;;;;;;;;;16.25;100.00;100591.50;12863565;23;19927;-68
2022/09/09 12:25:48;;;;;;;;;;;;;;;16.23;100.00;100594.16;12860199;23;19927;-68
2022/09/09 12:30:57;;;;;;;;;;;;;;;16.26;100.00;100596.69;12862762;23;20046;-72
2022/09/09 12:36:01;;;;;;;;;;;;;;;16.29;100.00;100595.75;12877451;23;20185;-70
2022/09/09 12:41:05;;;;;;;;;;;;;;;16.23;100.00;100591.53;12859753;23;20006;-72
2022/09/09 12:46:13;;;;;;;;;;;;;;;16.29;100.00;100593.97;12858606;23;20011;-70
2022/09/09 12:51:25;;;;;;;;;;;;;;;16.37;100.00;100585.88;12859170;23;20042;-69
2022/09/09 12:56:30;;;;;;;;;;;;;;;16.38;100.00;100574.50;12859017;23;20285;-71
2022/09/09 13:01:34;;;;;;;;;;;;;;;16.42;100.00;100578.75;12860280;23;19955;-72
2022/09/09 13:06:38;;;;;;;;;;;;;;;16.46;100.00;100577.75;12859840;23;19924;-70
2022/09/09 13:11:43;;;;;;;;;;;;;;;16.40;100.00;100580.56;12858715;23;20000;-71
2022/09/09 13:16:55;;;;;;;;;;;;;;;16.34;100.00;100589.47;12878335;23;19996;-70
2022/09/09 13:21:58;;;;;;;;;;;;;;;16.41;100.00;100577.88;12860633;23;20288;-70
2022/09/09 13:27:03;;;;;;;;;;;;;;;16.38;100.00;100583.22;12879767;23;19931;-72
2022/09/09 13:32:16;;;;;;;;;;;;;;;16.31;100.00;100567.75;12859663;23;19931;-69
2022/09/09 13:37:23;;;;;;;;;;;;;;;16.35;100.00;100564.13;12878764;23;19943;-71
2022/09/09 13:42:27;;;;;;;;;;;;;;;16.39;100.00;100571.84;12878308;23;19959;-70
2022/09/09 13:47:36;;;;;;;;;;;;;;;16.34;100.00;100570.28;12878340;23;19955;-70
2022/09/09 13:52:40;;;;;;;;;;;;;;;16.31;100.00;100565.97;12878538;23;19978;-69
2022/09/09 13:57:51;;;;;;;;;;;;;;;16.36;100.00;100576.31;12878753;23;20244;-71
2022/09/09 14:02:55;;;;;;;;;;;;;;;16.28;100.00;100583.53;12878766;23;20007;-71
2022/09/09 14:08:00;;;;;;;;;;;;;;;16.31;100.00;100579.06;12857897;23;19924;-71
2022/09/09 14:13:03;;;;;;;;;;;;;;;16.28;100.00;100580.91;12857665;23;19950;-70
2022/09/09 14:18:10;;;;;;;;;;;;;;;16.23;100.00;100588.91;12857486;23;20003;-72
2022/09/09 14:23:13;;;;;;;;;;;;;;;16.28;100.00;100589.66;12878389;23;20232;-70
2022/09/09 14:28:16;;;;;;;;;;;;;;;16.32;100.00;100593.03;12858493;23;19944;-72
2022/09/09 14:33:25;;;;;;;;;;;;;;;16.35;100.00;100590.31;12880969;23;19998;-70
2022/09/09 14:38:29;;;;;;;;;;;;;;;16.30;100.00;100594.84;12862064;23;20575;-69
2022/09/09 14:43:32;;;;;;;;;;;;;;;16.40;100.00;100585.78;12861726;23;20339;-72
2022/09/09 14:48:37;;;;;;;;;;;;;;;16.42;100.00;100584.00;12862296;23;19951;-72
2022/09/09 14:53:40;;;;;;;;;;;;;;;16.40;100.00;100581.41;12862661;23;19987;-70
2022/09/09 14:58:44;;;;;;;;;;;;;;;16.38;100.00;100603.31;12864039;23;19955;-71
2022/09/09 15:03:51;;;;;;;;;;;;;;;16.36;100.00;100592.88;12863012;23;19948;-72
2022/09/09 15:08:57;;;;;;;;;;;;;;;16.44;100.00;100597.91;12867147;23;19935;-73
2022/09/09 15:14:00;;;;;;;;;;;;;;;16.38;100.00;100580.59;12865673;23;20227;-64
2022/09/09 15:19:07;;;;;;;;;;;;;;;16.35;100.00;100577.22;12860861;23;19959;-66
2022/09/09 15:24:10;;;;;;;;;;;;;;;16.33;100.00;100592.97;12865867;23;20369;-69
2022/09/09 15:29:13;;;;;;;;;;;;;;;16.27;100.00;100592.31;12860400;23;19955;-65
2022/09/09 15:34:17;;;;;;;;;;;;;;;16.27;100.00;100593.19;12861469;23;19931;-65
2022/09/09 15:39:22;;;;;;;;;;;;;;;16.25;100.00;100594.13;12860684;23;19931;-65
2022/09/09 15:44:25;;;;;;;;;;;;;;;16.29;100.00;100601.00;12860221;23;19955;-69
2022/09/09 15:49:30;;;;;;;;;;;;;;;16.29;100.00;100599.19;12860513;23;19991;-66
2022/09/09 15:54:34;;;;;;;;;;;;;;;16.29;100.00;100593.13;12860377;23;20516;-70
2022/09/09 15:59:37;;;;;;;;;;;;;;;16.30;100.00;100592.22;12860612;23;19931;-68
2022/09/09 16:04:41;;;;;;;;;;;;;;;16.29;100.00;100599.19;12860559;23;20272;-67
2022/09/09 16:09:44;;;;;;;;;;;;;;;16.27;100.00;100584.44;12860961;23;19932;-67
2022/09/09 16:14:47;;;;;;;;;;;;;;;16.26;100.00;100588.81;12859436;23;19924;-67
2022/09/09 16:19:54;;;;;;;;;;;;;;;16.23;100.00;100593.28;12859344;23;19920;-67
2022/09/09 16:24:56;;;;;;;;;;;;;;;16.19;100.00;100576.81;12870451;23;20003;-72
2022/09/09 16:29:59;;;;;;;;;;;;;;;16.27;100.00;100589.69;12862477;23;19951;-69
2022/09/09 16:35:05;;;;;;;;;;;;;;;16.30;100.00;100585.22;12862299;23;19931;-72
2022/09/09 16:40:09;;;;;;;;;;;;;;;16.32;100.00;100586.03;12861218;23;19948;-71
2022/09/09 16:45:12;;;;;;;;;;;;;;;16.31;100.00;100588.72;12860102;23;19986;-70
2022/09/09 16:50:17;;;;;;;;;;;;;;;16.25;100.00;100581.88;12859433;23;19935;-70
2022/09/09 16:55:21;;;;;;;;;;;;;;;16.16;100.00;100585.63;12858920;23;19947;-66
2022/09/09 17:00:24;;;;;;;;;;;;;;;16.13;100.00;100583.06;12858920;23;19924;-69
2022/09/09 17:05:28;;;;;;;;;;;;;;;16.03;100.00;100594.72;12860255;23;19995;-67
2022/09/09 17:10:31;;;;;;;;;;;;;;;16.03;100.00;100599.97;12859291;23;19920;-69
2022/09/09 17:15:39;;;;;;;;;;;;;;;15.97;100.00;100597.53;12859694;23;19947;-69
2022/09/09 17:20:44;;;;;;;;;;;;;;;16.06;100.00;100609.50;12872677;23;19997;-71
2022/09/09 17:25:56;;;;;;;;;;;;;;;16.00;100.00;100607.91;12873278;23;19924;-72
2022/09/09 17:31:01;;;;;;;;;;;;;;;16.00;100.00;100607.91;12861515;23;20004;-72
2022/09/09 17:36:07;;;;;;;;;;;;;;;15.98;100.00;100612.31;12859399;23;20231;-72
2022/09/09 17:41:12;;;;;;;;;;;;;;;15.98;100.00;100612.31;12872318;23;20287;-72
2022/09/09 17:46:17;;;;;;;;;;;;;;;15.97;100.00;100623.72;12858397;23;19959;-70
2022/09/09 17:51:24;;;;;;;;;;;;;;;16.03;100.00;100626.16;12833017;23;19935;-64
2022/09/09 17:56:30;;;;;;;;;;;;;;;16.00;100.00;100614.91;12872498;23;19948;-70
2022/09/09 18:01:34;;;;;;;;;;;;;;;15.98;100.00;100619.31;12874353;23;20232;-75
2022/09/09 18:06:40;;;;;;;;;;;;;;;15.99;100.00;100627.16;12863934;23;20308;-71
2022/09/09 18:11:44;;;;;;;;;;;;;;;15.90;100.00;100629.16;12879131;23;19920;-72
2022/09/09 18:16:47;;;;;;;;;;;;;;;15.97;100.00;100636.81;12862980;23;20023;-72
2022/09/09 18:21:52;;;;;;;;;;;;;;;15.96;100.00;100642.94;12862672;23;19924;-70
2022/09/09 18:27:00;;;;;;;;;;;;;;;15.93;100.00;100648.25;12877204;23;20014;-67
2022/09/09 18:32:04;;;;;;;;;;;;;;;15.91;100.00;100655.28;12878221;23;19919;-68
2022/09/09 18:37:09;;;;;;;;;;;;;;;15.89;100.00;100643.16;12864661;23;19920;-71
2022/09/09 18:42:12;;;;;;;;;;;;;;;15.84;100.00;100647.66;12869235;23;19962;-71
2022/09/09 18:47:16;;;;;;;;;;;;;;;15.87;100.00;100652.81;12869422;23;19994;-71
2022/09/09 18:52:21;;;;;;;;;;;;;;;15.79;100.00;100652.16;12869658;23;19927;-71
2022/09/09 18:57:24;;;;;;;;;;;;;;;15.72;100.00;100658.44;12869146;23;19920;-70
2022/09/09 19:02:26;;;;;;;;;;;;;;;15.72;100.00;100654.06;12868929;23;19930;-71
2022/09/09 19:07:31;;;;;;;;;;;;;;;15.72;100.00;100656.66;12869044;23;19987;-69
2022/09/09 19:12:34;;;;;;;;;;;;;;;15.78;100.00;100642.56;12868836;23;19931;-72
2022/09/09 19:17:37;;;;;;;;;;;;;;;15.75;100.00;100647.91;12868577;23;19951;-71
2022/09/09 19:22:42;;;;;;;;;;;;;;;15.71;100.00;100652.34;12869397;23;19951;-70
2022/09/09 19:27:45;;;;;;;;;;;;;;;15.74;100.00;100662.72;12868400;23;20291;-72
2022/09/09 19:32:48;;;;;;;;;;;;;;;15.69;100.00;100659.38;12868552;23;20314;-73
2022/09/09 19:37:57;;;;;;;;;;;;;;;15.70;100.00;100650.63;12878419;23;20315;-74
2022/09/09 19:43:00;;;;;;;;;;;;;;;15.66;100.00;100651.63;12861078;23;19966;-71
2022/09/09 19:48:05;;;;;;;;;;;;;;;15.70;100.00;100645.38;12861492;23;19931;-71
2022/09/09 19:53:09;;;;;;;;;;;;;;;15.63;100.00;100650.84;12861389;23;20006;-73
2022/09/09 19:58:13;;;;;;;;;;;;;;;15.65;100.00;100646.44;12861432;23;19920;-76
2022/09/09 20:03:16;;;;;;;;;;;;;;;15.64;100.00;100647.31;12860651;23;20395;-74
2022/09/09 20:08:23;;;;;;;;;;;;;;;15.57;100.00;100644.00;12878945;23;19976;-72
2022/09/09 20:13:26;;;;;;;;;;;;;;;15.54;100.00;100644.09;12861038;23;20003;-72
2022/09/09 20:18:31;;;;;;;;;;;;;;;15.51;100.00;100631.09;12860571;23;19948;-72
2022/09/09 20:23:36;;;;;;;;;;;;;;;15.60;100.00;100643.91;12860477;23;20002;-74
2022/09/09 20:28:39;;;;;;;;;;;;;;;15.55;100.00;100640.56;12871601;23;20272;-76
2022/09/09 20:33:43;;;;;;;;;;;;;;;15.51;100.00;100644.16;12859741;23;20022;-73
2022/09/09 20:38:49;;;;;;;;;;;;;;;15.59;100.00;100647.44;12860492;23;19994;-75
2022/09/09 20:43:52;;;;;;;;;;;;;;;15.57;100.00;100649.22;12860236;23;19924;-71
2022/09/09 20:48:56;;;;;;;;;;;;;;;15.43;100.00;100647.88;12860031;23;20003;-72
2022/09/09 20:54:07;;;;;;;;;;;;;;;15.49;100.00;100661.66;12881585;23;20377;-75
2022/09/09 20:59:11;;;;;;;;;;;;;;;15.47;100.00;100660.81;12863005;23;20331;-72
2022/09/09 21:04:15;;;;;;;;;;;;;;;15.49;100.00;100653.81;12860943;23;19924;-73
2022/09/09 21:09:21;;;;;;;;;;;;;;;15.43;100.00;100666.19;12879196;23;20302;-72
2022/09/09 21:14:26;;;;;;;;;;;;;;;15.43;100.00;100666.19;12879297;23;19995;-73
2022/09/09 21:19:29;;;;;;;;;;;;;;;15.38;100.00;100668.88;12859837;23;20346;-63
2022/09/09 21:24:33;;;;;;;;;;;;;;;15.29;100.00;100673.47;12879363;23;20014;-65
2022/09/09 21:29:36;;;;;;;;;;;;;;;15.34;100.00;100675.06;12867401;23;20232;-72
2022/09/09 21:34:41;;;;;;;;;;;;;;;15.42;100.00;100664.44;12879395;23;20504;-64
2022/09/09 21:39:46;;;;;;;;;;;;;;;15.36;100.00;100672.44;12879393;23;19995;-65
2022/09/09 21:44:49;;;;;;;;;;;;;;;15.40;100.00;100669.72;12879839;23;20291;-64
2022/09/09 21:49:52;;;;;;;;;;;;;;;15.35;100.00;100658.50;12859297;23;20054;-66
2022/09/09 21:54:56;;;;;;;;;;;;;;;15.34;100.00;100661.97;12858787;23;19995;-68
2022/09/09 21:59:59;;;;;;;;;;;;;;;15.28;100.00;100656.91;12859036;23;20343;-64
2022/09/09 22:05:02;;;;;;;;;;;;;;;15.25;100.00;100667.47;12859898;23;19951;-63
2022/09/09 22:10:08;;;;;;;;;;;;;;;15.18;100.00;100670.25;12859093;23;20341;-65
2022/09/09 22:15:11;;;;;;;;;;;;;;;15.13;100.00;100670.38;12879558;23;19945;-65
2022/09/09 22:20:14;;;;;;;;;;;;;;;15.19;100.00;100658.88;12858627;23;20257;-62
2022/09/09 22:25:19;;;;;;;;;;;;;;;15.29;100.00;100666.47;12859422;23;20426;-65
2022/09/09 22:30:22;;;;;;;;;;;;;;;15.20;100.00;100658.88;12860759;23;19939;-65
2022/09/09 22:35:25;;;;;;;;;;;;;;;15.24;100.00;100657.88;12860570;23;19924;-73
2022/09/09 22:40:29;;;;;;;;;;;;;;;15.24;100.00;100655.25;12859301;23;19953;-74
2022/09/09 22:45:32;;;;;;;;;;;;;;;15.28;100.00;100662.16;12859278;23;20383;-72
2022/09/09 22:50:35;;;;;;;;;;;;;;;15.18;100.00;100654.56;12858776;23;20007;-73
2022/09/09 22:55:54;;;;;;;;;;;;;;;15.22;100.00;100651.81;12863940;23;19947;-73
2022/09/09 23:00:57;;;;;;;;;;;;;;;15.20;100.00;100644.94;12863608;23;19995;-73
2022/09/09 23:06:03;;;;;;;;;;;;;;;15.11;100.00;100638.16;12862032;23;19999;-70
2022/09/09 23:11:08;;;;;;;;;;;;;;;15.15;100.00;100634.59;12864416;23;19966;-72
2022/09/09 23:16:12;;;;;;;;;;;;;;;15.21;100.00;100628.31;12862097;23;19924;-71
2022/09/09 23:21:15;;;;;;;;;;;;;;;15.24;100.00;100633.50;12861716;23;19998;-72
2022/09/09 23:26:20;;;;;;;;;;;;;;;15.19;100.00;100630.97;12861997;23;20520;-71
2022/09/09 23:31:23;;;;;;;;;;;;;;;15.19;100.00;100628.38;12862433;23;20414;-74
2022/09/09 23:36:28;;;;;;;;;;;;;;;15.20;100.00;100624.00;12861785;23;19954;-72
2022/09/09 23:41:34;;;;;;;;;;;;;;;15.20;100.00;100627.50;12862412;23;19951;-71
2022/09/09 23:46:37;;;;;;;;;;;;;;;15.11;100.00;100616.38;12864515;23;20304;-72
2022/09/09 23:51:40;;;;;;;;;;;;;;;15.19;100.00;100619.66;12861116;23;19981;-74
2022/09/09 23:56:44;;;;;;;;;;;;;;;15.09;100.00;100626.88;12861091;23;19943;-71
